sensor_id;sensor_type;location;lat;lon;timestamp;P1;durP1;ratioP1;P2;durP2;ratioP2
2542;SDS011;1116;51.502;7.414;2022-11-20T00:00:02;24.05;;;19.17;;
2542;SDS011;1116;51.502;7.414;2022-11-20T00:02:39;28.50;;;20.98;;
2542;SDS011;1116;51.502;7.414;2022-11-20T00:05:09;33.60;;;22.58;;
2542;SDS011;1116;51.502;7.414;2022-11-20T00:07:40;30.83;;;23.67;;
2542;SDS011;1116;51.502;7.414;2022-11-20T00:10:11;31.60;;;23.33;;
2542;SDS011;1116;51.502;7.414;2022-11-20T00:12:47;33.13;;;23.95;;
2542;SDS011;1116;51.502;7.414;2022-11-20T00:15:22;35.30;;;24.45;;
2542;SDS011;1116;51.502;7.414;2022-11-20T00:17:52;32.65;;;24.17;;
2542;SDS011;1116;51.502;7.414;2022-11-20T00:20:23;32.20;;;23.55;;
2542;SDS011;1116;51.502;7.414;2022-11-20T00:22:54;32.83;;;24.33;;
2542;SDS011;1116;51.502;7.414;2022-11-20T00:25:25;32.63;;;24.88;;
2542;SDS011;1116;51.502;7.414;2022-11-20T00:27:59;33.38;;;24.52;;
2542;SDS011;1116;51.502;7.414;2022-11-20T00:30:31;32.28;;;23.33;;
2542;SDS011;1116;51.502;7.414;2022-11-20T00:33:02;34.33;;;24.95;;
2542;SDS011;1116;51.502;7.414;2022-11-20T00:35:33;34.85;;;24.05;;
2542;SDS011;1116;51.502;7.414;2022-11-20T00:38:04;31.20;;;23.65;;
2542;SDS011;1116;51.502;7.414;2022-11-20T00:40:35;32.33;;;24.48;;
2542;SDS011;1116;51.502;7.414;2022-11-20T00:43:09;35.65;;;26.55;;
2542;SDS011;1116;51.502;7.414;2022-11-20T00:45:40;36.25;;;26.58;;
2542;SDS011;1116;51.502;7.414;2022-11-20T00:48:11;36.38;;;26.55;;
2542;SDS011;1116;51.502;7.414;2022-11-20T00:50:41;36.92;;;26.98;;
2542;SDS011;1116;51.502;7.414;2022-11-20T00:53:13;39.10;;;25.88;;
2542;SDS011;1116;51.502;7.414;2022-11-20T00:55:51;33.25;;;26.50;;
2542;SDS011;1116;51.502;7.414;2022-11-20T00:58:28;36.22;;;25.65;;
2542;SDS011;1116;51.502;7.414;2022-11-20T01:01:00;33.65;;;26.27;;
2542;SDS011;1116;51.502;7.414;2022-11-20T01:03:33;36.65;;;27.13;;
2542;SDS011;1116;51.502;7.414;2022-11-20T01:06:05;31.08;;;23.80;;
2542;SDS011;1116;51.502;7.414;2022-11-20T01:08:38;33.25;;;23.50;;
2542;SDS011;1116;51.502;7.414;2022-11-20T01:11:10;29.95;;;24.15;;
2542;SDS011;1116;51.502;7.414;2022-11-20T01:13:47;34.28;;;26.02;;
2542;SDS011;1116;51.502;7.414;2022-11-20T01:16:20;31.48;;;23.30;;
2542;SDS011;1116;51.502;7.414;2022-11-20T01:18:57;30.63;;;22.83;;
2542;SDS011;1116;51.502;7.414;2022-11-20T01:21:31;32.70;;;22.00;;
2542;SDS011;1116;51.502;7.414;2022-11-20T01:24:04;31.65;;;22.27;;
2542;SDS011;1116;51.502;7.414;2022-11-20T01:26:38;27.98;;;20.85;;
2542;SDS011;1116;51.502;7.414;2022-11-20T01:29:13;35.55;;;22.33;;
2542;SDS011;1116;51.502;7.414;2022-11-20T01:31:46;28.40;;;20.75;;
2542;SDS011;1116;51.502;7.414;2022-11-20T01:34:17;30.00;;;21.65;;
2542;SDS011;1116;51.502;7.414;2022-11-20T01:36:50;31.90;;;22.40;;
2542;SDS011;1116;51.502;7.414;2022-11-20T01:39:22;25.30;;;20.45;;
2542;SDS011;1116;51.502;7.414;2022-11-20T01:41:55;29.67;;;21.95;;
2542;SDS011;1116;51.502;7.414;2022-11-20T01:44:54;27.70;;;21.08;;
2542;SDS011;1116;51.502;7.414;2022-11-20T01:47:29;28.38;;;20.85;;
2542;SDS011;1116;51.502;7.414;2022-11-20T01:50:15;28.95;;;21.25;;
2542;SDS011;1116;51.502;7.414;2022-11-20T01:52:51;26.58;;;19.70;;
2542;SDS011;1116;51.502;7.414;2022-11-20T01:55:29;31.17;;;22.30;;
2542;SDS011;1116;51.502;7.414;2022-11-20T01:58:03;31.17;;;22.42;;
2542;SDS011;1116;51.502;7.414;2022-11-20T02:00:38;30.10;;;21.65;;
2542;SDS011;1116;51.502;7.414;2022-11-20T02:03:13;30.38;;;21.15;;
2542;SDS011;1116;51.502;7.414;2022-11-20T02:05:47;27.35;;;20.77;;
2542;SDS011;1116;51.502;7.414;2022-11-20T02:08:21;28.23;;;21.05;;
2542;SDS011;1116;51.502;7.414;2022-11-20T02:10:53;30.65;;;21.80;;
2542;SDS011;1116;51.502;7.414;2022-11-20T02:13:24;30.25;;;21.92;;
2542;SDS011;1116;51.502;7.414;2022-11-20T02:16:18;27.30;;;20.58;;
2542;SDS011;1116;51.502;7.414;2022-11-20T02:18:52;27.40;;;19.95;;
2542;SDS011;1116;51.502;7.414;2022-11-20T02:21:27;28.20;;;19.70;;
2542;SDS011;1116;51.502;7.414;2022-11-20T02:24:06;29.88;;;20.50;;
2542;SDS011;1116;51.502;7.414;2022-11-20T02:26:41;29.95;;;20.73;;
2542;SDS011;1116;51.502;7.414;2022-11-20T02:29:16;28.15;;;20.67;;
2542;SDS011;1116;51.502;7.414;2022-11-20T02:31:54;30.20;;;20.52;;
2542;SDS011;1116;51.502;7.414;2022-11-20T02:34:27;28.48;;;19.77;;
2542;SDS011;1116;51.502;7.414;2022-11-20T02:36:58;28.80;;;20.30;;
2542;SDS011;1116;51.502;7.414;2022-11-20T02:39:32;26.05;;;18.77;;
2542;SDS011;1116;51.502;7.414;2022-11-20T02:42:03;28.52;;;20.15;;
2542;SDS011;1116;51.502;7.414;2022-11-20T02:44:34;28.75;;;20.52;;
2542;SDS011;1116;51.502;7.414;2022-11-20T02:47:05;27.52;;;19.50;;
2542;SDS011;1116;51.502;7.414;2022-11-20T02:49:36;27.55;;;18.85;;
2542;SDS011;1116;51.502;7.414;2022-11-20T02:52:10;25.67;;;18.92;;
2542;SDS011;1116;51.502;7.414;2022-11-20T02:54:44;27.98;;;19.50;;
2542;SDS011;1116;51.502;7.414;2022-11-20T02:59:49;25.75;;;18.65;;
2542;SDS011;1116;51.502;7.414;2022-11-20T03:02:20;23.70;;;18.63;;
2542;SDS011;1116;51.502;7.414;2022-11-20T03:04:55;28.13;;;19.73;;
2542;SDS011;1116;51.502;7.414;2022-11-20T03:07:31;24.88;;;18.30;;
2542;SDS011;1116;51.502;7.414;2022-11-20T03:10:04;27.42;;;20.35;;
2542;SDS011;1116;51.502;7.414;2022-11-20T03:12:36;28.60;;;20.63;;
2542;SDS011;1116;51.502;7.414;2022-11-20T03:15:07;27.63;;;19.77;;
2542;SDS011;1116;51.502;7.414;2022-11-20T03:17:39;22.70;;;17.60;;
2542;SDS011;1116;51.502;7.414;2022-11-20T03:20:10;22.92;;;17.95;;
2542;SDS011;1116;51.502;7.414;2022-11-20T03:22:42;25.27;;;17.35;;
2542;SDS011;1116;51.502;7.414;2022-11-20T03:25:16;22.13;;;17.48;;
2542;SDS011;1116;51.502;7.414;2022-11-20T03:27:47;25.10;;;17.35;;
2542;SDS011;1116;51.502;7.414;2022-11-20T03:30:19;25.88;;;17.90;;
2542;SDS011;1116;51.502;7.414;2022-11-20T03:32:56;23.75;;;16.65;;
2542;SDS011;1116;51.502;7.414;2022-11-20T03:35:29;24.42;;;17.42;;
2542;SDS011;1116;51.502;7.414;2022-11-20T03:38:00;23.00;;;17.13;;
2542;SDS011;1116;51.502;7.414;2022-11-20T03:40:33;25.42;;;17.40;;
2542;SDS011;1116;51.502;7.414;2022-11-20T03:43:04;22.60;;;16.23;;
2542;SDS011;1116;51.502;7.414;2022-11-20T03:45:35;21.25;;;16.88;;
2542;SDS011;1116;51.502;7.414;2022-11-20T03:48:06;24.08;;;17.70;;
2542;SDS011;1116;51.502;7.414;2022-11-20T03:50:37;25.30;;;17.90;;
2542;SDS011;1116;51.502;7.414;2022-11-20T03:53:09;24.73;;;17.08;;
2542;SDS011;1116;51.502;7.414;2022-11-20T03:55:44;21.73;;;17.55;;
2542;SDS011;1116;51.502;7.414;2022-11-20T03:58:20;23.02;;;17.67;;
2542;SDS011;1116;51.502;7.414;2022-11-20T04:00:51;22.60;;;17.45;;
2542;SDS011;1116;51.502;7.414;2022-11-20T04:03:23;22.63;;;16.38;;
2542;SDS011;1116;51.502;7.414;2022-11-20T04:05:55;20.73;;;16.33;;
2542;SDS011;1116;51.502;7.414;2022-11-20T04:08:31;22.90;;;17.27;;
2542;SDS011;1116;51.502;7.414;2022-11-20T04:11:11;23.52;;;17.27;;
2542;SDS011;1116;51.502;7.414;2022-11-20T04:13:45;25.08;;;18.58;;
2542;SDS011;1116;51.502;7.414;2022-11-20T04:16:17;23.80;;;17.95;;
2542;SDS011;1116;51.502;7.414;2022-11-20T04:18:51;25.58;;;18.48;;
2542;SDS011;1116;51.502;7.414;2022-11-20T04:21:24;24.88;;;18.15;;
2542;SDS011;1116;51.502;7.414;2022-11-20T04:23:57;23.55;;;17.75;;
2542;SDS011;1116;51.502;7.414;2022-11-20T04:26:31;27.52;;;19.77;;
2542;SDS011;1116;51.502;7.414;2022-11-20T04:29:02;22.48;;;18.98;;
2542;SDS011;1116;51.502;7.414;2022-11-20T04:31:34;24.60;;;17.95;;
2542;SDS011;1116;51.502;7.414;2022-11-20T04:34:05;26.42;;;18.67;;
2542;SDS011;1116;51.502;7.414;2022-11-20T04:36:37;24.83;;;18.45;;
2542;SDS011;1116;51.502;7.414;2022-11-20T04:39:13;24.30;;;19.75;;
2542;SDS011;1116;51.502;7.414;2022-11-20T04:41:48;23.38;;;18.50;;
2542;SDS011;1116;51.502;7.414;2022-11-20T04:44:42;23.60;;;17.98;;
2542;SDS011;1116;51.502;7.414;2022-11-20T04:47:13;24.55;;;16.95;;
2542;SDS011;1116;51.502;7.414;2022-11-20T04:49:45;24.02;;;17.90;;
2542;SDS011;1116;51.502;7.414;2022-11-20T04:52:16;22.25;;;17.42;;
2542;SDS011;1116;51.502;7.414;2022-11-20T04:54:47;22.05;;;16.92;;
2542;SDS011;1116;51.502;7.414;2022-11-20T04:57:22;23.58;;;18.02;;
2542;SDS011;1116;51.502;7.414;2022-11-20T04:59:53;20.85;;;16.30;;
2542;SDS011;1116;51.502;7.414;2022-11-20T05:02:24;25.90;;;18.17;;
2542;SDS011;1116;51.502;7.414;2022-11-20T05:04:55;25.05;;;18.05;;
2542;SDS011;1116;51.502;7.414;2022-11-20T05:07:26;25.42;;;18.60;;
2542;SDS011;1116;51.502;7.414;2022-11-20T05:09:57;26.90;;;20.52;;
2542;SDS011;1116;51.502;7.414;2022-11-20T05:12:30;27.83;;;21.20;;
2542;SDS011;1116;51.502;7.414;2022-11-20T05:15:02;27.17;;;19.83;;
2542;SDS011;1116;51.502;7.414;2022-11-20T05:17:33;25.95;;;19.30;;
2542;SDS011;1116;51.502;7.414;2022-11-20T05:20:04;30.15;;;20.65;;
2542;SDS011;1116;51.502;7.414;2022-11-20T05:22:37;28.15;;;21.42;;
2542;SDS011;1116;51.502;7.414;2022-11-20T05:25:09;25.98;;;19.52;;
2542;SDS011;1116;51.502;7.414;2022-11-20T05:27:43;27.58;;;20.52;;
2542;SDS011;1116;51.502;7.414;2022-11-20T05:30:16;27.17;;;20.30;;
2542;SDS011;1116;51.502;7.414;2022-11-20T05:32:46;24.73;;;19.70;;
2542;SDS011;1116;51.502;7.414;2022-11-20T05:35:18;26.15;;;20.40;;
2542;SDS011;1116;51.502;7.414;2022-11-20T05:37:48;28.10;;;21.20;;
2542;SDS011;1116;51.502;7.414;2022-11-20T05:40:19;25.83;;;20.00;;
2542;SDS011;1116;51.502;7.414;2022-11-20T05:42:53;27.48;;;20.85;;
2542;SDS011;1116;51.502;7.414;2022-11-20T05:45:23;21.63;;;18.50;;
2542;SDS011;1116;51.502;7.414;2022-11-20T05:47:57;27.33;;;19.92;;
2542;SDS011;1116;51.502;7.414;2022-11-20T05:50:29;24.20;;;19.10;;
2542;SDS011;1116;51.502;7.414;2022-11-20T05:53:00;26.60;;;19.80;;
2542;SDS011;1116;51.502;7.414;2022-11-20T05:55:31;26.05;;;19.17;;
2542;SDS011;1116;51.502;7.414;2022-11-20T05:58:04;26.70;;;20.05;;
2542;SDS011;1116;51.502;7.414;2022-11-20T06:00:35;25.02;;;18.75;;
2542;SDS011;1116;51.502;7.414;2022-11-20T06:03:06;24.73;;;18.85;;
2542;SDS011;1116;51.502;7.414;2022-11-20T06:05:37;25.08;;;18.90;;
2542;SDS011;1116;51.502;7.414;2022-11-20T06:08:07;25.45;;;19.05;;
2542;SDS011;1116;51.502;7.414;2022-11-20T06:10:39;28.15;;;19.73;;
2542;SDS011;1116;51.502;7.414;2022-11-20T06:13:12;25.45;;;19.67;;
2542;SDS011;1116;51.502;7.414;2022-11-20T06:15:47;23.27;;;18.27;;
2542;SDS011;1116;51.502;7.414;2022-11-20T06:18:19;24.80;;;18.17;;
2542;SDS011;1116;51.502;7.414;2022-11-20T06:20:50;24.30;;;18.20;;
2542;SDS011;1116;51.502;7.414;2022-11-20T06:23:30;25.60;;;19.00;;
2542;SDS011;1116;51.502;7.414;2022-11-20T06:26:01;23.95;;;18.00;;
2542;SDS011;1116;51.502;7.414;2022-11-20T06:28:35;23.33;;;17.58;;
2542;SDS011;1116;51.502;7.414;2022-11-20T06:31:09;23.10;;;17.25;;
2542;SDS011;1116;51.502;7.414;2022-11-20T06:33:41;24.60;;;17.95;;
2542;SDS011;1116;51.502;7.414;2022-11-20T06:36:13;23.00;;;17.67;;
2542;SDS011;1116;51.502;7.414;2022-11-20T06:38:46;24.50;;;18.15;;
2542;SDS011;1116;51.502;7.414;2022-11-20T06:41:20;22.60;;;16.67;;
2542;SDS011;1116;51.502;7.414;2022-11-20T06:43:58;22.80;;;16.65;;
2542;SDS011;1116;51.502;7.414;2022-11-20T06:46:29;23.35;;;18.15;;
2542;SDS011;1116;51.502;7.414;2022-11-20T06:49:00;23.58;;;16.45;;
2542;SDS011;1116;51.502;7.414;2022-11-20T06:51:31;22.80;;;16.50;;
2542;SDS011;1116;51.502;7.414;2022-11-20T06:54:05;21.20;;;16.60;;
2542;SDS011;1116;51.502;7.414;2022-11-20T06:56:35;21.42;;;15.73;;
2542;SDS011;1116;51.502;7.414;2022-11-20T06:59:09;23.33;;;16.90;;
2542;SDS011;1116;51.502;7.414;2022-11-20T07:01:40;24.00;;;17.60;;
2542;SDS011;1116;51.502;7.414;2022-11-20T07:04:11;26.05;;;17.98;;
2542;SDS011;1116;51.502;7.414;2022-11-20T07:06:43;22.42;;;16.70;;
2542;SDS011;1116;51.502;7.414;2022-11-20T07:09:14;23.05;;;16.92;;
2542;SDS011;1116;51.502;7.414;2022-11-20T07:11:45;22.13;;;16.77;;
2542;SDS011;1116;51.502;7.414;2022-11-20T07:14:18;22.73;;;17.08;;
2542;SDS011;1116;51.502;7.414;2022-11-20T07:16:49;20.48;;;16.23;;
2542;SDS011;1116;51.502;7.414;2022-11-20T07:19:21;26.67;;;17.83;;
2542;SDS011;1116;51.502;7.414;2022-11-20T07:21:51;20.05;;;16.33;;
2542;SDS011;1116;51.502;7.414;2022-11-20T07:24:25;24.33;;;16.55;;
2542;SDS011;1116;51.502;7.414;2022-11-20T07:26:55;25.48;;;18.00;;
2542;SDS011;1116;51.502;7.414;2022-11-20T07:29:29;24.85;;;17.67;;
2542;SDS011;1116;51.502;7.414;2022-11-20T07:32:00;25.00;;;17.85;;
2542;SDS011;1116;51.502;7.414;2022-11-20T07:34:30;22.23;;;16.67;;
2542;SDS011;1116;51.502;7.414;2022-11-20T07:37:04;25.00;;;18.33;;
2542;SDS011;1116;51.502;7.414;2022-11-20T07:39:40;22.50;;;16.05;;
2542;SDS011;1116;51.502;7.414;2022-11-20T07:42:16;22.55;;;17.75;;
2542;SDS011;1116;51.502;7.414;2022-11-20T07:44:49;24.00;;;18.33;;
2542;SDS011;1116;51.502;7.414;2022-11-20T07:47:22;22.48;;;16.90;;
2542;SDS011;1116;51.502;7.414;2022-11-20T07:49:53;23.35;;;16.88;;
2542;SDS011;1116;51.502;7.414;2022-11-20T07:52:24;23.00;;;17.35;;
2542;SDS011;1116;51.502;7.414;2022-11-20T07:54:57;24.20;;;17.00;;
2542;SDS011;1116;51.502;7.414;2022-11-20T07:57:29;21.88;;;16.65;;
2542;SDS011;1116;51.502;7.414;2022-11-20T08:00:02;24.70;;;17.15;;
2542;SDS011;1116;51.502;7.414;2022-11-20T08:02:36;20.90;;;16.08;;
2542;SDS011;1116;51.502;7.414;2022-11-20T08:05:07;23.08;;;17.15;;
2542;SDS011;1116;51.502;7.414;2022-11-20T08:07:40;29.40;;;20.85;;
2542;SDS011;1116;51.502;7.414;2022-11-20T08:10:12;24.00;;;18.25;;
2542;SDS011;1116;51.502;7.414;2022-11-20T08:12:45;24.40;;;18.60;;
2542;SDS011;1116;51.502;7.414;2022-11-20T08:15:31;24.90;;;18.90;;
2542;SDS011;1116;51.502;7.414;2022-11-20T08:18:03;30.25;;;21.08;;
2542;SDS011;1116;51.502;7.414;2022-11-20T08:20:55;30.08;;;20.50;;
2542;SDS011;1116;51.502;7.414;2022-11-20T08:23:27;27.25;;;19.92;;
2542;SDS011;1116;51.502;7.414;2022-11-20T08:25:58;26.20;;;19.90;;
2542;SDS011;1116;51.502;7.414;2022-11-20T08:28:29;27.05;;;19.25;;
2542;SDS011;1116;51.502;7.414;2022-11-20T08:31:05;29.23;;;20.40;;
2542;SDS011;1116;51.502;7.414;2022-11-20T08:33:37;24.38;;;19.25;;
2542;SDS011;1116;51.502;7.414;2022-11-20T08:36:08;27.77;;;19.27;;
2542;SDS011;1116;51.502;7.414;2022-11-20T08:38:42;26.88;;;20.00;;
2542;SDS011;1116;51.502;7.414;2022-11-20T08:41:16;26.70;;;18.20;;
2542;SDS011;1116;51.502;7.414;2022-11-20T08:43:55;25.73;;;19.15;;
2542;SDS011;1116;51.502;7.414;2022-11-20T08:46:33;24.63;;;17.83;;
2542;SDS011;1116;51.502;7.414;2022-11-20T08:49:08;26.13;;;18.30;;
2542;SDS011;1116;51.502;7.414;2022-11-20T08:54:27;26.35;;;19.52;;
2542;SDS011;1116;51.502;7.414;2022-11-20T08:56:58;29.00;;;20.48;;
2542;SDS011;1116;51.502;7.414;2022-11-20T08:59:29;28.65;;;19.30;;
2542;SDS011;1116;51.502;7.414;2022-11-20T09:02:23;25.27;;;18.42;;
2542;SDS011;1116;51.502;7.414;2022-11-20T09:04:56;25.70;;;18.75;;
2542;SDS011;1116;51.502;7.414;2022-11-20T09:07:29;26.85;;;18.70;;
2542;SDS011;1116;51.502;7.414;2022-11-20T09:10:10;28.05;;;20.10;;
2542;SDS011;1116;51.502;7.414;2022-11-20T09:12:52;28.55;;;19.65;;
2542;SDS011;1116;51.502;7.414;2022-11-20T09:15:23;25.35;;;18.77;;
2542;SDS011;1116;51.502;7.414;2022-11-20T09:17:57;26.80;;;18.73;;
2542;SDS011;1116;51.502;7.414;2022-11-20T09:20:29;22.13;;;17.73;;
2542;SDS011;1116;51.502;7.414;2022-11-20T09:23:02;24.05;;;17.30;;
2542;SDS011;1116;51.502;7.414;2022-11-20T09:25:34;22.33;;;18.20;;
2542;SDS011;1116;51.502;7.414;2022-11-20T09:28:04;24.58;;;16.73;;
2542;SDS011;1116;51.502;7.414;2022-11-20T09:30:37;29.92;;;18.00;;
2542;SDS011;1116;51.502;7.414;2022-11-20T09:33:11;25.13;;;17.45;;
2542;SDS011;1116;51.502;7.414;2022-11-20T09:35:42;28.58;;;18.65;;
2542;SDS011;1116;51.502;7.414;2022-11-20T09:38:13;26.27;;;17.30;;
2542;SDS011;1116;51.502;7.414;2022-11-20T09:40:45;25.35;;;18.00;;
2542;SDS011;1116;51.502;7.414;2022-11-20T09:43:24;25.02;;;16.90;;
2542;SDS011;1116;51.502;7.414;2022-11-20T09:46:11;30.17;;;18.92;;
2542;SDS011;1116;51.502;7.414;2022-11-20T09:48:55;26.65;;;17.83;;
2542;SDS011;1116;51.502;7.414;2022-11-20T09:51:38;21.35;;;15.48;;
2542;SDS011;1116;51.502;7.414;2022-11-20T09:54:17;20.52;;;16.48;;
2542;SDS011;1116;51.502;7.414;2022-11-20T09:56:49;22.93;;;15.50;;
2542;SDS011;1116;51.502;7.414;2022-11-20T09:59:26;20.70;;;15.63;;
2542;SDS011;1116;51.502;7.414;2022-11-20T10:02:08;23.08;;;16.08;;
2542;SDS011;1116;51.502;7.414;2022-11-20T10:04:51;23.65;;;14.95;;
2542;SDS011;1116;51.502;7.414;2022-11-20T10:07:28;24.92;;;15.13;;
2542;SDS011;1116;51.502;7.414;2022-11-20T10:10:05;21.65;;;15.07;;
2542;SDS011;1116;51.502;7.414;2022-11-20T10:12:50;23.03;;;15.07;;
2542;SDS011;1116;51.502;7.414;2022-11-20T10:15:33;20.40;;;15.13;;
2542;SDS011;1116;51.502;7.414;2022-11-20T10:18:19;21.08;;;15.23;;
2542;SDS011;1116;51.502;7.414;2022-11-20T10:21:05;22.13;;;15.48;;
2542;SDS011;1116;51.502;7.414;2022-11-20T10:23:45;20.63;;;13.97;;
2542;SDS011;1116;51.502;7.414;2022-11-20T10:26:32;18.73;;;14.57;;
2542;SDS011;1116;51.502;7.414;2022-11-20T10:29:13;18.83;;;15.10;;
2542;SDS011;1116;51.502;7.414;2022-11-20T10:31:47;15.17;;;11.57;;
2542;SDS011;1116;51.502;7.414;2022-11-20T10:34:22;14.73;;;11.80;;
2542;SDS011;1116;51.502;7.414;2022-11-20T10:37:00;14.47;;;10.97;;
2542;SDS011;1116;51.502;7.414;2022-11-20T10:39:39;12.97;;;9.90;;
2542;SDS011;1116;51.502;7.414;2022-11-20T10:42:17;14.47;;;11.07;;
2542;SDS011;1116;51.502;7.414;2022-11-20T10:45:01;16.20;;;11.70;;
2542;SDS011;1116;51.502;7.414;2022-11-20T10:47:40;16.23;;;11.67;;
2542;SDS011;1116;51.502;7.414;2022-11-20T10:50:11;13.80;;;12.30;;
2542;SDS011;1116;51.502;7.414;2022-11-20T10:52:55;13.70;;;10.50;;
2542;SDS011;1116;51.502;7.414;2022-11-20T10:55:39;13.13;;;10.77;;
2542;SDS011;1116;51.502;7.414;2022-11-20T10:58:18;13.17;;;10.33;;
2542;SDS011;1116;51.502;7.414;2022-11-20T11:01:02;15.43;;;12.20;;
2542;SDS011;1116;51.502;7.414;2022-11-20T11:03:34;20.97;;;13.10;;
2542;SDS011;1116;51.502;7.414;2022-11-20T11:06:07;14.37;;;10.47;;
2542;SDS011;1116;51.502;7.414;2022-11-20T11:08:48;13.00;;;11.63;;
2542;SDS011;1116;51.502;7.414;2022-11-20T11:11:22;13.60;;;11.20;;
2542;SDS011;1116;51.502;7.414;2022-11-20T11:14:03;12.27;;;10.13;;
2542;SDS011;1116;51.502;7.414;2022-11-20T11:16:35;11.90;;;9.87;;
2542;SDS011;1116;51.502;7.414;2022-11-20T11:19:13;12.63;;;11.10;;
2542;SDS011;1116;51.502;7.414;2022-11-20T11:21:46;11.77;;;9.57;;
2542;SDS011;1116;51.502;7.414;2022-11-20T11:24:26;15.10;;;10.43;;
2542;SDS011;1116;51.502;7.414;2022-11-20T11:27:11;14.40;;;11.53;;
2542;SDS011;1116;51.502;7.414;2022-11-20T11:29:45;11.77;;;10.17;;
2542;SDS011;1116;51.502;7.414;2022-11-20T11:32:19;13.23;;;10.30;;
2542;SDS011;1116;51.502;7.414;2022-11-20T11:35:01;16.53;;;11.90;;
2542;SDS011;1116;51.502;7.414;2022-11-20T11:37:34;14.57;;;11.97;;
2542;SDS011;1116;51.502;7.414;2022-11-20T11:40:09;13.77;;;11.50;;
2542;SDS011;1116;51.502;7.414;2022-11-20T11:42:52;12.87;;;10.70;;
2542;SDS011;1116;51.502;7.414;2022-11-20T11:45:26;12.60;;;10.47;;
2542;SDS011;1116;51.502;7.414;2022-11-20T11:47:55;11.70;;;9.73;;
2542;SDS011;1116;51.502;7.414;2022-11-20T11:50:30;13.93;;;11.80;;
2542;SDS011;1116;51.502;7.414;2022-11-20T11:53:07;14.60;;;11.50;;
2542;SDS011;1116;51.502;7.414;2022-11-20T11:55:45;16.67;;;12.13;;
2542;SDS011;1116;51.502;7.414;2022-11-20T11:58:20;15.23;;;12.60;;
2542;SDS011;1116;51.502;7.414;2022-11-20T12:01:07;15.90;;;11.80;;
2542;SDS011;1116;51.502;7.414;2022-11-20T12:03:51;15.23;;;11.60;;
2542;SDS011;1116;51.502;7.414;2022-11-20T12:06:25;13.00;;;10.50;;
2542;SDS011;1116;51.502;7.414;2022-11-20T12:08:59;15.50;;;11.00;;
2542;SDS011;1116;51.502;7.414;2022-11-20T12:11:37;13.17;;;9.60;;
2542;SDS011;1116;51.502;7.414;2022-11-20T12:14:14;15.30;;;11.47;;
2542;SDS011;1116;51.502;7.414;2022-11-20T12:16:51;14.27;;;11.50;;
2542;SDS011;1116;51.502;7.414;2022-11-20T12:19:24;13.63;;;10.43;;
2542;SDS011;1116;51.502;7.414;2022-11-20T12:22:02;13.70;;;10.77;;
2542;SDS011;1116;51.502;7.414;2022-11-20T12:24:44;11.87;;;9.37;;
2542;SDS011;1116;51.502;7.414;2022-11-20T12:30:32;12.63;;;10.20;;
2542;SDS011;1116;51.502;7.414;2022-11-20T12:36:11;12.33;;;10.13;;
2542;SDS011;1116;51.502;7.414;2022-11-20T12:39:11;11.47;;;9.13;;
2542;SDS011;1116;51.502;7.414;2022-11-20T12:41:56;11.17;;;9.17;;
2542;SDS011;1116;51.502;7.414;2022-11-20T12:45:08;11.27;;;9.10;;
2542;SDS011;1116;51.502;7.414;2022-11-20T12:50:51;12.20;;;10.00;;
2542;SDS011;1116;51.502;7.414;2022-11-20T12:53:43;11.83;;;9.77;;
2542;SDS011;1116;51.502;7.414;2022-11-20T12:56:30;14.07;;;10.20;;
2542;SDS011;1116;51.502;7.414;2022-11-20T13:02:09;15.13;;;10.33;;
2542;SDS011;1116;51.502;7.414;2022-11-20T13:05:03;13.90;;;10.60;;
2542;SDS011;1116;51.502;7.414;2022-11-20T13:07:46;13.90;;;10.20;;
2542;SDS011;1116;51.502;7.414;2022-11-20T13:10:20;14.17;;;11.23;;
2542;SDS011;1116;51.502;7.414;2022-11-20T13:12:59;14.97;;;11.93;;
2542;SDS011;1116;51.502;7.414;2022-11-20T13:15:40;13.40;;;10.70;;
2542;SDS011;1116;51.502;7.414;2022-11-20T13:18:21;15.70;;;11.83;;
2542;SDS011;1116;51.502;7.414;2022-11-20T13:20:54;15.00;;;11.77;;
2542;SDS011;1116;51.502;7.414;2022-11-20T13:23:28;13.00;;;10.60;;
2542;SDS011;1116;51.502;7.414;2022-11-20T13:26:05;13.87;;;11.13;;
2542;SDS011;1116;51.502;7.414;2022-11-20T13:28:45;15.27;;;12.37;;
2542;SDS011;1116;51.502;7.414;2022-11-20T13:31:28;15.70;;;11.40;;
2542;SDS011;1116;51.502;7.414;2022-11-20T13:34:04;15.30;;;11.67;;
2542;SDS011;1116;51.502;7.414;2022-11-20T13:36:47;12.47;;;11.00;;
2542;SDS011;1116;51.502;7.414;2022-11-20T13:39:26;15.33;;;11.83;;
2542;SDS011;1116;51.502;7.414;2022-11-20T13:41:58;16.03;;;11.63;;
2542;SDS011;1116;51.502;7.414;2022-11-20T13:44:33;15.03;;;11.67;;
2542;SDS011;1116;51.502;7.414;2022-11-20T13:47:17;15.20;;;10.73;;
2542;SDS011;1116;51.502;7.414;2022-11-20T13:49:54;17.60;;;12.80;;
2542;SDS011;1116;51.502;7.414;2022-11-20T13:52:30;15.90;;;11.87;;
2542;SDS011;1116;51.502;7.414;2022-11-20T13:55:15;15.30;;;11.20;;
2542;SDS011;1116;51.502;7.414;2022-11-20T14:00:57;12.93;;;10.60;;
2542;SDS011;1116;51.502;7.414;2022-11-20T14:03:31;16.97;;;11.50;;
2542;SDS011;1116;51.502;7.414;2022-11-20T14:06:28;15.37;;;11.37;;
2542;SDS011;1116;51.502;7.414;2022-11-20T14:09:00;16.33;;;10.73;;
2542;SDS011;1116;51.502;7.414;2022-11-20T14:11:33;13.70;;;10.13;;
2542;SDS011;1116;51.502;7.414;2022-11-20T14:14:13;13.50;;;10.70;;
2542;SDS011;1116;51.502;7.414;2022-11-20T14:16:46;16.10;;;10.70;;
2542;SDS011;1116;51.502;7.414;2022-11-20T14:19:27;15.53;;;12.27;;
2542;SDS011;1116;51.502;7.414;2022-11-20T14:22:09;17.20;;;12.40;;
2542;SDS011;1116;51.502;7.414;2022-11-20T14:24:47;16.63;;;12.20;;
2542;SDS011;1116;51.502;7.414;2022-11-20T14:27:19;13.93;;;11.25;;
2542;SDS011;1116;51.502;7.414;2022-11-20T14:29:51;18.30;;;12.70;;
2542;SDS011;1116;51.502;7.414;2022-11-20T14:32:24;24.30;;;15.33;;
2542;SDS011;1116;51.502;7.414;2022-11-20T14:35:09;19.43;;;13.03;;
2542;SDS011;1116;51.502;7.414;2022-11-20T14:37:49;16.90;;;12.73;;
2542;SDS011;1116;51.502;7.414;2022-11-20T14:40:27;18.30;;;12.90;;
2542;SDS011;1116;51.502;7.414;2022-11-20T14:43:14;17.83;;;12.50;;
2542;SDS011;1116;51.502;7.414;2022-11-20T14:45:48;16.87;;;11.97;;
2542;SDS011;1116;51.502;7.414;2022-11-20T14:48:28;15.93;;;12.83;;
2542;SDS011;1116;51.502;7.414;2022-11-20T14:51:01;17.00;;;12.70;;
2542;SDS011;1116;51.502;7.414;2022-11-20T14:53:35;17.00;;;13.83;;
2542;SDS011;1116;51.502;7.414;2022-11-20T14:56:09;17.53;;;13.23;;
2542;SDS011;1116;51.502;7.414;2022-11-20T14:58:40;15.37;;;11.90;;
2542;SDS011;1116;51.502;7.414;2022-11-20T15:01:12;17.40;;;12.03;;
2542;SDS011;1116;51.502;7.414;2022-11-20T15:03:46;15.20;;;11.23;;
2542;SDS011;1116;51.502;7.414;2022-11-20T15:06:30;15.30;;;11.90;;
2542;SDS011;1116;51.502;7.414;2022-11-20T15:09:12;16.20;;;12.57;;
2542;SDS011;1116;51.502;7.414;2022-11-20T15:11:52;16.00;;;12.73;;
2542;SDS011;1116;51.502;7.414;2022-11-20T15:14:29;17.50;;;12.80;;
2542;SDS011;1116;51.502;7.414;2022-11-20T15:17:02;18.30;;;13.53;;
2542;SDS011;1116;51.502;7.414;2022-11-20T15:19:33;16.43;;;12.57;;
2542;SDS011;1116;51.502;7.414;2022-11-20T15:22:07;18.10;;;14.43;;
2542;SDS011;1116;51.502;7.414;2022-11-20T15:24:46;15.93;;;12.73;;
2542;SDS011;1116;51.502;7.414;2022-11-20T15:27:17;14.77;;;12.50;;
2542;SDS011;1116;51.502;7.414;2022-11-20T15:29:48;18.30;;;13.50;;
2542;SDS011;1116;51.502;7.414;2022-11-20T15:32:24;19.83;;;14.17;;
2542;SDS011;1116;51.502;7.414;2022-11-20T15:34:57;19.73;;;14.20;;
2542;SDS011;1116;51.502;7.414;2022-11-20T15:37:30;18.73;;;13.90;;
2542;SDS011;1116;51.502;7.414;2022-11-20T15:40:06;18.20;;;14.33;;
2542;SDS011;1116;51.502;7.414;2022-11-20T15:42:38;17.87;;;14.00;;
2542;SDS011;1116;51.502;7.414;2022-11-20T15:45:29;21.47;;;14.83;;
2542;SDS011;1116;51.502;7.414;2022-11-20T15:48:08;20.13;;;15.50;;
2542;SDS011;1116;51.502;7.414;2022-11-20T15:50:43;18.67;;;14.23;;
2542;SDS011;1116;51.502;7.414;2022-11-20T15:53:19;22.13;;;15.70;;
2542;SDS011;1116;51.502;7.414;2022-11-20T15:55:52;21.70;;;15.50;;